createdAt,value
2022-09-06T00:47:16.657Z,25.10
2022-09-06T00:49:48.643Z,25.10
2022-09-06T00:52:19.765Z,25.20
2022-09-06T00:54:49.174Z,25.10
2022-09-06T00:57:18.338Z,25.10
2022-09-06T00:59:48.220Z,25.10
2022-09-06T01:46:40.780Z,25.10
2022-09-06T01:49:28.286Z,25.10
2022-09-06T01:52:13.242Z,25.10
2022-09-06T01:55:08.173Z,25.10
2022-09-06T01:57:54.416Z,25.00
2022-09-06T02:46:08.143Z,25.00
2022-09-06T02:48:36.345Z,24.90
2022-09-06T02:51:05.173Z,24.90
2022-09-06T02:53:33.705Z,24.90
2022-09-06T02:56:02.563Z,24.90
2022-09-06T02:58:30.699Z,24.90
2022-09-06T04:32:42.738Z,24.90
2022-09-06T04:35:10.902Z,25.00
2022-09-06T04:37:39.008Z,25.00
2022-09-06T04:40:09.614Z,25.10
2022-09-06T04:42:37.772Z,25.10
2022-09-06T04:45:07.243Z,25.10
2022-09-06T04:47:35.354Z,25.10
2022-09-06T04:50:05.495Z,25.10
2022-09-06T04:52:33.626Z,25.00
2022-09-06T04:55:01.746Z,25.00
2022-09-06T04:57:29.876Z,25.00
2022-09-06T04:59:58.007Z,25.00
2022-09-06T05:02:26.241Z,24.90
2022-09-06T05:04:54.788Z,24.90
2022-09-06T05:07:24.253Z,24.90
2022-09-06T05:09:52.331Z,24.90
2022-09-06T05:12:20.400Z,24.90
2022-09-06T05:14:48.481Z,24.90
2022-09-06T05:17:16.613Z,24.90
2022-09-06T05:19:44.699Z,24.90
2022-09-06T05:22:13.106Z,24.90
2022-09-06T05:24:42.961Z,24.90
2022-09-06T05:27:12.672Z,25.00
2022-09-06T05:29:40.965Z,25.00
2022-09-06T05:32:09.179Z,25.00
2022-09-06T05:34:37.343Z,25.00
2022-09-06T05:37:05.711Z,25.00
2022-09-06T05:39:33.877Z,25.00
2022-09-06T05:42:07.007Z,25.00
2022-09-06T05:44:35.303Z,25.00
2022-09-06T05:47:03.851Z,25.00
2022-09-06T05:49:33.164Z,24.90
2022-09-06T05:52:01.271Z,24.90
2022-09-06T05:54:29.673Z,25.00
2022-09-06T05:56:58.571Z,25.00
2022-09-06T05:59:28.775Z,24.90
2022-09-06T06:01:57.630Z,24.90
2022-09-06T06:04:26.363Z,24.90
2022-09-06T06:06:54.577Z,24.90
2022-09-06T06:09:24.008Z,24.80
2022-09-06T06:11:52.318Z,24.80
2022-09-06T06:14:20.388Z,24.80
2022-09-06T06:16:50.651Z,24.80
2022-09-06T06:19:19.042Z,24.80
2022-09-06T06:21:47.162Z,24.80
2022-09-06T06:24:15.243Z,24.80
2022-09-06T06:26:43.880Z,24.80
2022-09-06T06:29:12.491Z,24.80
2022-09-06T06:31:41.150Z,24.80
2022-09-06T06:34:10.827Z,24.80
2022-09-06T06:36:39.241Z,24.80
2022-09-06T06:39:09.463Z,24.80
2022-09-06T06:41:37.719Z,24.80
2022-09-06T06:44:23.334Z,24.80
2022-09-06T06:46:52.202Z,24.80
2022-09-06T06:49:21.723Z,24.90
2022-09-06T06:51:49.822Z,24.80
2022-09-06T06:54:17.927Z,24.80
2022-09-06T06:56:46.064Z,24.80
2022-09-06T06:59:14.654Z,24.80
2022-09-06T07:01:42.946Z,24.80
2022-09-06T07:04:12.225Z,24.80
2022-09-06T07:12:29.515Z,24.80
2022-09-06T07:14:57.648Z,24.80
2022-09-06T07:17:25.767Z,24.80
2022-09-06T07:22:43.886Z,24.80
2022-09-06T07:25:16.557Z,24.80
2022-09-06T07:27:49.537Z,24.80
2022-09-06T07:30:19.900Z,24.80
2022-09-06T07:32:48.373Z,24.80
2022-09-06T07:35:16.652Z,24.80
2022-09-06T07:37:53.602Z,24.80
2022-09-06T07:40:21.716Z,24.80
2022-09-06T07:42:49.815Z,24.80
2022-09-06T07:45:21.153Z,24.80
2022-09-06T07:53:15.528Z,24.80
2022-09-06T07:55:45.886Z,24.80
2022-09-06T07:58:14.130Z,24.80
2022-09-06T08:00:42.304Z,24.80
2022-09-06T08:03:10.665Z,24.80
2022-09-06T08:11:16.713Z,24.90
2022-09-06T08:13:45.634Z,24.90
2022-09-06T08:16:15.603Z,24.90
2022-09-06T08:18:44.329Z,24.90
2022-09-06T08:21:14.972Z,24.90
2022-09-06T08:23:48.467Z,24.90
2022-09-06T08:26:17.350Z,24.90
2022-09-06T08:28:45.982Z,24.90
2022-09-06T08:31:16.972Z,25.00
2022-09-06T08:33:47.588Z,25.00
2022-09-06T08:36:16.587Z,25.00
2022-09-06T08:38:46.611Z,25.00
2022-09-06T08:41:26.259Z,25.10
2022-09-06T08:46:55.190Z,25.00
2022-09-06T08:49:23.622Z,25.00
2022-09-06T08:52:07.377Z,25.00
2022-09-06T08:54:42.004Z,25.00
2022-09-06T08:57:21.848Z,25.00
2022-09-06T08:59:54.877Z,25.00
2022-09-06T09:02:23.513Z,25.00
2022-09-06T09:04:59.077Z,24.90
2022-09-06T09:07:41.212Z,24.90
2022-09-06T09:10:17.160Z,24.90
2022-09-06T09:12:49.818Z,24.90
2022-09-06T09:15:21.072Z,24.90
2022-09-06T09:17:52.424Z,24.90
2022-09-06T09:20:21.059Z,24.90
2022-09-06T09:22:49.670Z,24.90
2022-09-06T09:25:24.471Z,24.90
2022-09-06T09:27:57.625Z,24.90
2022-09-06T09:33:31.552Z,24.90
2022-09-06T09:36:02.056Z,24.90
2022-09-06T09:38:33.825Z,24.90
2022-09-06T09:41:06.702Z,24.90
2022-09-06T09:43:38.681Z,24.90
2022-09-06T09:46:18.593Z,24.90
2022-09-06T09:49:04.846Z,24.90
2022-09-06T09:51:38.894Z,24.80
2022-09-06T09:54:10.125Z,24.90
2022-09-06T09:56:48.343Z,24.80
2022-09-06T09:59:24.959Z,24.80
2022-09-06T10:01:56.586Z,24.80
2022-09-06T10:04:47.969Z,24.80
2022-09-06T10:07:19.344Z,24.80
2022-09-06T10:09:49.477Z,24.80
2022-09-06T10:12:28.136Z,24.80
2022-09-06T10:14:57.262Z,24.80
2022-09-06T10:17:32.709Z,24.80
2022-09-06T10:20:06.386Z,24.80
2022-09-06T10:22:44.837Z,24.80
2022-09-06T10:25:48.985Z,24.80
2022-09-06T10:28:36.492Z,24.80
2022-09-06T10:31:35.307Z,24.80
2022-09-06T10:34:18.092Z,24.80
2022-09-06T10:36:55.314Z,24.80
2022-09-06T10:39:39.833Z,24.80
2022-09-06T10:42:20.661Z,24.80
2022-09-06T10:45:16.797Z,24.90
2022-09-06T10:48:01.346Z,24.90
2022-09-06T10:50:43.834Z,24.90
2022-09-06T10:53:22.641Z,24.90
2022-09-06T10:56:03.594Z,24.90
2022-09-06T11:01:35.817Z,24.90
2022-09-06T11:04:12.850Z,24.90
2022-09-06T11:06:46.422Z,24.90
2022-09-06T11:09:24.026Z,24.90
2022-09-06T11:12:01.258Z,24.80
2022-09-06T11:14:30.153Z,24.80
2022-09-06T11:17:06.609Z,24.90
2022-09-06T11:19:44.235Z,24.80
2022-09-06T11:22:50.088Z,24.80
2022-09-06T11:26:16.851Z,24.80
2022-09-06T11:28:49.798Z,24.80
2022-09-06T11:34:24.094Z,24.80
2022-09-06T11:36:55.498Z,24.80
2022-09-06T11:42:42.610Z,24.80
2022-09-06T11:45:21.677Z,24.80
2022-09-06T11:47:51.751Z,24.80
2022-09-06T11:51:02.212Z,24.80
2022-09-06T11:53:32.595Z,24.90
2022-09-06T11:56:26.888Z,24.80
2022-09-06T11:59:00.561Z,24.80
2022-09-06T12:01:39.363Z,24.80
2022-09-06T12:04:10.759Z,24.80
2022-09-06T12:06:43.784Z,24.80
2022-09-06T12:09:31.555Z,24.80
2022-09-06T12:12:01.194Z,24.90
2022-09-06T12:14:34.084Z,24.90
2022-09-06T12:17:46.348Z,24.90
2022-09-06T12:21:04.135Z,24.90
2022-09-06T12:23:44.546Z,24.90
2022-09-06T12:26:13.659Z,24.90
2022-09-06T12:28:49.890Z,25.00
2022-09-06T12:31:37.801Z,25.00
2022-09-06T12:34:18.461Z,25.00
2022-09-06T12:36:56.637Z,25.00
2022-09-06T12:39:26.818Z,25.00
2022-09-06T12:41:59.006Z,25.10
2022-09-06T12:44:34.874Z,25.20
2022-09-06T12:47:15.602Z,25.20
2022-09-06T12:49:43.941Z,25.20
2022-09-06T12:52:20.593Z,25.20
2022-09-06T12:54:51.165Z,25.20
2022-09-06T12:57:22.557Z,25.30
2022-09-06T12:59:56.046Z,25.40
2022-09-06T13:02:36.514Z,25.40
2022-09-06T13:05:08.905Z,25.40
2022-09-06T13:07:46.198Z,25.40
2022-09-06T13:10:16.239Z,25.40
2022-09-06T13:12:47.936Z,25.40
2022-09-06T13:15:20.595Z,25.40
2022-09-06T13:17:49.480Z,25.50
2022-09-06T13:20:27.811Z,25.50
2022-09-06T13:23:10.452Z,25.60
2022-09-06T13:25:48.868Z,25.60
2022-09-06T13:28:26.973Z,25.50
2022-09-06T13:31:09.146Z,25.50
2022-09-06T13:33:38.733Z,25.50
2022-09-06T13:36:20.277Z,25.50
2022-09-06T13:38:50.742Z,25.50
2022-09-06T13:41:44.646Z,25.60
2022-09-06T13:44:29.606Z,25.60
2022-09-06T13:46:58.158Z,25.60
2022-09-06T13:49:28.209Z,25.60
2022-09-06T13:52:01.175Z,25.60
2022-09-06T13:54:31.857Z,25.60
2022-09-06T13:57:04.092Z,25.60
2022-09-06T13:59:37.790Z,25.60
2022-09-06T14:02:10.246Z,25.60
2022-09-06T14:04:39.407Z,25.60
2022-09-06T14:07:07.500Z,25.60
2022-09-06T14:09:37.486Z,25.60
2022-09-06T14:12:06.864Z,25.60
2022-09-06T14:14:35.426Z,25.60
2022-09-06T14:17:03.803Z,25.60
2022-09-06T14:19:31.959Z,25.60
2022-09-06T14:22:00.138Z,25.60
2022-09-06T14:24:28.475Z,25.60
2022-09-06T14:26:58.022Z,25.60
2022-09-06T14:29:26.200Z,25.60
2022-09-06T14:31:54.327Z,25.60
2022-09-06T14:34:22.637Z,25.60
2022-09-06T14:36:51.198Z,25.60
2022-09-06T14:39:19.903Z,25.60
2022-09-06T14:41:48.251Z,25.60
2022-09-06T14:44:18.593Z,25.60
2022-09-06T14:46:47.703Z,25.60
2022-09-06T14:49:16.076Z,25.60
2022-09-06T14:51:45.901Z,25.60
2022-09-06T14:54:15.822Z,25.60
2022-09-06T14:56:45.231Z,25.60
2022-09-06T14:59:13.891Z,25.50
2022-09-06T15:01:43.633Z,25.50
2022-09-06T15:04:12.845Z,25.40
2022-09-06T15:06:46.857Z,25.50
2022-09-06T15:09:15.844Z,25.50
2022-09-06T15:11:47.607Z,25.40
2022-09-06T15:14:19.137Z,25.40
2022-09-06T15:16:55.290Z,25.40
2022-09-06T15:19:25.413Z,25.50
2022-09-06T15:21:54.033Z,25.40
2022-09-06T15:24:22.762Z,25.30
2022-09-06T15:26:52.200Z,25.20
2022-09-06T15:29:21.384Z,25.20
2022-09-06T15:31:51.820Z,25.30
2022-09-06T15:34:21.959Z,25.30
2022-09-06T15:36:50.636Z,25.40
2022-09-06T15:39:19.433Z,25.50
2022-09-06T15:41:48.030Z,25.60
2022-09-06T15:44:19.225Z,25.50
2022-09-06T15:46:52.394Z,25.50
2022-09-06T15:49:27.604Z,25.50
2022-09-06T15:51:58.371Z,25.50
2022-09-06T15:54:40.748Z,25.50
2022-09-06T15:57:10.306Z,25.50
2022-09-06T15:59:39.941Z,25.40
2022-09-06T16:02:10.969Z,25.40
2022-09-06T16:04:39.739Z,25.40
2022-09-06T16:07:09.683Z,25.40
2022-09-06T16:09:38.033Z,25.40
2022-09-06T16:12:06.660Z,25.40
2022-09-06T16:14:35.657Z,25.40
2022-09-06T16:17:03.952Z,25.40
2022-09-06T16:19:34.716Z,25.30
2022-09-06T16:22:02.960Z,25.30
2022-09-06T16:24:31.246Z,25.30
2022-09-06T16:26:59.523Z,25.30
2022-09-06T16:29:27.895Z,25.30
2022-09-06T16:31:59.672Z,25.30
2022-09-06T16:34:28.060Z,25.30
2022-09-06T16:36:57.991Z,25.40
2022-09-06T16:39:26.268Z,25.30
2022-09-06T16:41:54.528Z,25.40
2022-09-06T16:44:22.728Z,25.40
2022-09-06T16:46:52.963Z,25.40
2022-09-06T16:49:21.602Z,25.40
2022-09-06T16:51:51.280Z,25.50
2022-09-06T16:54:21.963Z,25.40
2022-09-06T16:56:50.205Z,25.50
2022-09-06T16:59:18.580Z,25.50
2022-09-06T17:01:47.333Z,25.50
2022-09-06T17:04:16.389Z,25.50
2022-09-06T17:06:47.462Z,25.50
2022-09-06T17:09:18.732Z,25.50
2022-09-06T17:11:50.051Z,25.40
2022-09-06T17:14:19.251Z,25.40
2022-09-06T17:17:05.138Z,25.40
2022-09-06T17:19:37.599Z,25.40
2022-09-06T17:22:06.130Z,25.30
2022-09-06T17:24:35.051Z,25.30
2022-09-06T17:27:05.809Z,25.30
2022-09-06T17:29:34.773Z,25.30
2022-09-06T17:32:10.071Z,25.30
2022-09-06T17:34:48.722Z,25.30
2022-09-06T17:37:17.293Z,25.30
2022-09-06T17:39:46.050Z,25.30
2022-09-06T17:42:14.771Z,25.30
2022-09-06T17:44:45.627Z,25.30
2022-09-06T17:47:14.527Z,25.30
2022-09-06T17:49:43.769Z,25.20
2022-09-06T17:52:13.975Z,25.20
2022-09-06T17:54:47.156Z,25.20
2022-09-06T17:57:15.968Z,25.30
2022-09-06T17:59:44.379Z,25.30
2022-09-06T18:02:14.069Z,25.30
2022-09-06T18:04:43.545Z,25.30
2022-09-06T18:07:14.574Z,25.40
2022-09-06T18:09:43.365Z,25.40
2022-09-06T18:12:12.158Z,25.50
2022-09-06T18:14:41.277Z,25.50
2022-09-06T18:19:58.431Z,25.70
2022-09-06T18:22:28.055Z,25.70
2022-09-06T18:24:58.419Z,25.70
2022-09-06T18:27:27.071Z,25.70
2022-09-06T18:29:55.708Z,25.80
2022-09-06T18:32:24.820Z,25.70
2022-09-06T18:34:53.112Z,25.70
2022-09-06T18:37:21.408Z,25.60
2022-09-06T18:39:51.073Z,25.60
2022-09-06T18:42:20.092Z,25.60
2022-09-06T18:44:48.443Z,25.60
2022-09-06T18:47:17.216Z,25.60
2022-09-06T18:49:45.390Z,25.60
2022-09-06T18:52:13.850Z,25.70
2022-09-06T18:54:43.692Z,25.70
2022-09-06T18:57:15.564Z,25.70
2022-09-06T18:59:44.270Z,25.80
2022-09-06T19:02:12.996Z,25.80
2022-09-06T19:04:41.470Z,25.70
2022-09-06T19:07:09.817Z,25.70
2022-09-06T19:09:38.355Z,25.70
2022-09-06T19:12:07.291Z,25.70
2022-09-06T19:14:37.012Z,25.70
2022-09-06T19:17:07.268Z,25.70
2022-09-06T19:19:35.894Z,25.70
2022-09-06T19:22:04.578Z,25.70
2022-09-06T19:24:33.914Z,25.70
2022-09-06T19:27:02.118Z,25.70
2022-09-06T19:29:32.019Z,25.70
2022-09-06T19:32:01.914Z,25.60
2022-09-06T19:34:30.764Z,25.60
2022-09-06T19:36:59.084Z,25.50
2022-09-06T19:39:34.847Z,25.50
2022-09-06T19:42:06.425Z,25.50
2022-09-06T19:44:34.745Z,25.50
2022-09-06T19:47:05.386Z,25.50
2022-09-06T19:49:34.110Z,25.50
2022-09-06T19:52:09.452Z,25.50
2022-09-06T19:54:38.091Z,25.50
2022-09-06T19:57:07.061Z,25.50
2022-09-06T19:59:36.615Z,25.50
2022-09-06T20:02:06.960Z,25.40
2022-09-06T20:04:35.382Z,25.40
2022-09-06T20:07:03.692Z,25.40
2022-09-06T20:09:32.108Z,25.40
2022-09-06T20:12:00.373Z,25.40
2022-09-06T20:14:28.893Z,25.40
2022-09-06T20:17:11.131Z,25.50
2022-09-06T20:19:46.639Z,25.40
2022-09-06T20:22:14.950Z,25.50
2022-09-06T20:24:43.463Z,25.40
2022-09-06T20:27:11.854Z,25.40
2022-09-06T20:29:40.095Z,25.40
2022-09-06T20:32:08.335Z,25.40
2022-09-06T20:34:36.664Z,25.40
2022-09-06T20:37:06.298Z,25.40
2022-09-06T20:49:03.547Z,25.40
2022-09-06T20:51:33.619Z,25.30
2022-09-06T20:54:06.389Z,25.40
2022-09-06T20:56:38.400Z,25.40
2022-09-06T20:59:09.278Z,25.30
2022-09-06T21:01:41.158Z,25.30
2022-09-06T21:04:10.867Z,25.30
2022-09-06T21:06:41.107Z,25.30
2022-09-06T21:09:14.014Z,25.30
2022-09-06T21:11:43.216Z,25.30
2022-09-06T21:14:11.790Z,25.30
2022-09-06T21:16:41.323Z,25.30
2022-09-06T21:19:12.059Z,25.30
2022-09-06T21:21:41.460Z,25.30
2022-09-06T21:24:12.142Z,25.30
2022-09-06T21:26:40.985Z,25.30
2022-09-06T21:29:09.919Z,25.30
2022-09-06T21:31:39.026Z,25.30
2022-09-06T21:34:16.975Z,25.20
2022-09-06T21:36:49.883Z,25.20
2022-09-06T21:39:19.517Z,25.20
2022-09-06T21:41:48.017Z,25.20
2022-09-06T21:44:16.256Z,25.20
2022-09-06T21:46:45.469Z,25.20
2022-09-06T21:49:16.353Z,25.10
2022-09-06T21:51:45.118Z,25.10
2022-09-06T21:54:13.347Z,25.10
2022-09-06T21:56:43.441Z,25.10
2022-09-06T21:59:12.093Z,25.10
2022-09-06T22:01:44.911Z,25.10
2022-09-06T22:04:16.600Z,25.10
2022-09-06T22:06:47.916Z,25.20
2022-09-06T22:09:16.103Z,25.20
2022-09-06T22:11:48.909Z,25.20
2022-09-06T22:14:17.261Z,25.20
2022-09-06T22:16:45.615Z,25.20
2022-09-06T22:19:14.242Z,25.20
2022-09-06T22:21:42.491Z,25.20
2022-09-06T22:24:13.233Z,25.20
2022-09-06T22:26:43.088Z,25.10
2022-09-06T22:29:15.785Z,25.10
2022-09-06T22:31:44.660Z,25.10
2022-09-06T22:34:13.233Z,25.10
2022-09-06T22:36:41.611Z,25.10
2022-09-06T22:39:10.310Z,25.10
2022-09-06T22:41:40.821Z,25.10
2022-09-06T22:44:09.087Z,25.10
2022-09-06T22:46:39.473Z,25.10
2022-09-06T22:49:10.551Z,25.10
2022-09-06T22:52:04.276Z,25.10
2022-09-06T22:54:33.038Z,25.10
2022-09-06T22:57:01.394Z,25.10
2022-09-06T22:59:29.623Z,25.00
2022-09-06T23:46:14.608Z,25.00
2022-09-06T23:48:43.963Z,25.00
2022-09-06T23:51:13.072Z,25.00
2022-09-06T23:53:41.744Z,25.00
2022-09-06T23:56:10.787Z,25.00
2022-09-06T23:58:40.389Z,25.00
